Aviation Digital Data Service (ADDS)

Output produced by METARs form (1622 UTC 23 May 2015)
found at http://aviationweather.gov/adds/metars/
 
KILM 231134Z 2312/2412 VRB04KT P6SM SKC 
     FM231400 07008KT P6SM FEW200 
     FM231800 09010KT P6SM FEW040 FEW150 
     FM240000 07004KT P6SM SCT150